To NAV CANADA Home Page Login to a new session Search on AWWS site Feedback and Comments Disclaimer Vers la page française équivalente Tips FAQ What's new on the site To the Forecasts and Observations / NOTAM section To "File a Flight Plan" website Publications and other links Update of the User's profile FIC Telephone Numbers My Weather Data Folder Route Weather Data Regional Weather Data Local Weather Data To the Forecasts and Observations / NOTAM section
Request Generated 09/28/2016 at 10:12:20 UTC . Weather information available at that time is displayed.

METAR/TAF

HALIFAX/STANFIELD INTL/NS    (show WxCam)

METAR CYHZ 281000Z 02009KT 10SM OVC004 10/09 A3018 RMK ST8 SLP225=
METAR CYHZ 280900Z 04007KT 10SM OVC004 10/10 A3016 RMK ST8 SLP216=
SPECI CYHZ 280834Z 04006KT 10SM OVC006 10/10 A3015 RMK ST8 SLP212=
METAR CYHZ 280800Z 06007KT 5SM -DZ BR OVC005 10/10 A3013 RMK ST8 CIG
VRB 3-7 SLP206=

TAF CYHZ 280838Z 2809/2906 04008KT P6SM OVC006 TEMPO 2809/2812 2SM
-DZ BR OVC003
FM281400 03012KT P6SM -DZ OVC008
FM281700 02012KT P6SM OVC015
FM290400 02010KT P6SM BKN007
RMK NXT FCST BY 281200Z=
Your time UTC time
Weather data provided by Environment Canada and NAV CANADA